sensor_id;sensor_type;location;lat;lon;timestamp;P1;durP1;ratioP1;P2;durP2;ratioP2
26824;SDS011;14402;48.178;11.566;2022-10-22T00:00:25;2.2;;;1.5;;
26824;SDS011;14402;48.178;11.566;2022-10-22T00:00:55;2.2;;;1.5;;
26824;SDS011;14402;48.178;11.566;2022-10-22T00:01:25;2.2;;;1.5;;
26824;SDS011;14402;48.178;11.566;2022-10-22T00:01:55;2.5;;;1.4;;
26824;SDS011;14402;48.178;11.566;2022-10-22T00:02:25;2.7;;;1.2;;
26824;SDS011;14402;48.178;11.566;2022-10-22T00:02:55;2.7;;;1.2;;
26824;SDS011;14402;48.178;11.566;2022-10-22T00:03:25;2.7;;;1.2;;
26824;SDS011;14402;48.178;11.566;2022-10-22T00:03:55;2.8;;;1.2;;
26824;SDS011;14402;48.178;11.566;2022-10-22T00:04:25;2.8;;;1.3;;
26824;SDS011;14402;48.178;11.566;2022-10-22T00:04:55;2.8;;;1.3;;
26824;SDS011;14402;48.178;11.566;2022-10-22T00:05:26;2.8;;;1.3;;
26824;SDS011;14402;48.178;11.566;2022-10-22T00:05:56;2.8;;;1.2;;
26824;SDS011;14402;48.178;11.566;2022-10-22T00:06:26;2.9;;;1.2;;
26824;SDS011;14402;48.178;11.566;2022-10-22T00:06:56;2.9;;;1.2;;
26824;SDS011;14402;48.178;11.566;2022-10-22T00:07:26;2.9;;;1.2;;
26824;SDS011;14402;48.178;11.566;2022-10-22T00:07:56;3.1;;;1.2;;
26824;SDS011;14402;48.178;11.566;2022-10-22T00:08:26;3.2;;;1.3;;
26824;SDS011;14402;48.178;11.566;2022-10-22T00:08:56;3.2;;;1.3;;
26824;SDS011;14402;48.178;11.566;2022-10-22T00:09:26;3.2;;;1.3;;
26824;SDS011;14402;48.178;11.566;2022-10-22T00:09:56;2.8;;;1.3;;
26824;SDS011;14402;48.178;11.566;2022-10-22T00:10:26;2.3;;;1.3;;
26824;SDS011;14402;48.178;11.566;2022-10-22T00:10:57;2.3;;;1.3;;
26824;SDS011;14402;48.178;11.566;2022-10-22T00:11:27;2.3;;;1.3;;
26824;SDS011;14402;48.178;11.566;2022-10-22T00:11:57;3.2;;;1.5;;
26824;SDS011;14402;48.178;11.566;2022-10-22T00:12:27;4.0;;;1.6;;
26824;SDS011;14402;48.178;11.566;2022-10-22T00:12:57;4.0;;;1.6;;
26824;SDS011;14402;48.178;11.566;2022-10-22T00:13:27;4.0;;;1.6;;
26824;SDS011;14402;48.178;11.566;2022-10-22T00:13:57;4.0;;;1.6;;
26824;SDS011;14402;48.178;11.566;2022-10-22T00:14:27;3.7;;;1.5;;
26824;SDS011;14402;48.178;11.566;2022-10-22T00:14:57;3.4;;;1.5;;
26824;SDS011;14402;48.178;11.566;2022-10-22T00:15:27;3.4;;;1.5;;
26824;SDS011;14402;48.178;11.566;2022-10-22T00:15:57;3.4;;;1.5;;
26824;SDS011;14402;48.178;11.566;2022-10-22T00:16:27;3.5;;;1.4;;
26824;SDS011;14402;48.178;11.566;2022-10-22T00:16:58;3.5;;;1.2;;
26824;SDS011;14402;48.178;11.566;2022-10-22T00:17:29;3.5;;;1.2;;
26824;SDS011;14402;48.178;11.566;2022-10-22T00:17:58;3.5;;;1.2;;
26824;SDS011;14402;48.178;11.566;2022-10-22T00:18:28;3.0;;;1.2;;
26824;SDS011;14402;48.178;11.566;2022-10-22T00:18:58;2.5;;;1.3;;
26824;SDS011;14402;48.178;11.566;2022-10-22T00:19:28;2.5;;;1.3;;
26824;SDS011;14402;48.178;11.566;2022-10-22T00:19:58;2.5;;;1.3;;
26824;SDS011;14402;48.178;11.566;2022-10-22T00:20:28;2.5;;;1.3;;
26824;SDS011;14402;48.178;11.566;2022-10-22T00:20:58;2.6;;;1.4;;
26824;SDS011;14402;48.178;11.566;2022-10-22T00:21:28;2.6;;;1.4;;
26824;SDS011;14402;48.178;11.566;2022-10-22T00:21:58;2.6;;;1.4;;
26824;SDS011;14402;48.178;11.566;2022-10-22T00:22:28;3.2;;;1.5;;
26824;SDS011;14402;48.178;11.566;2022-10-22T00:22:59;3.7;;;1.5;;
26824;SDS011;14402;48.178;11.566;2022-10-22T00:23:29;3.7;;;1.5;;
26824;SDS011;14402;48.178;11.566;2022-10-22T00:23:59;3.7;;;1.5;;
26824;SDS011;14402;48.178;11.566;2022-10-22T00:24:29;3.3;;;1.5;;
26824;SDS011;14402;48.178;11.566;2022-10-22T00:24:59;3.0;;;1.4;;
26824;SDS011;14402;48.178;11.566;2022-10-22T00:25:29;3.0;;;1.4;;
26824;SDS011;14402;48.178;11.566;2022-10-22T00:25:59;3.0;;;1.4;;
26824;SDS011;14402;48.178;11.566;2022-10-22T00:26:29;2.8;;;1.5;;
26824;SDS011;14402;48.178;11.566;2022-10-22T00:27:00;2.7;;;1.5;;
26824;SDS011;14402;48.178;11.566;2022-10-22T00:27:29;2.7;;;1.5;;
26824;SDS011;14402;48.178;11.566;2022-10-22T00:28:00;2.7;;;1.5;;
26824;SDS011;14402;48.178;11.566;2022-10-22T00:28:30;2.7;;;1.5;;
26824;SDS011;14402;48.178;11.566;2022-10-22T00:29:00;2.7;;;1.5;;
26824;SDS011;14402;48.178;11.566;2022-10-22T00:29:30;2.7;;;1.5;;
26824;SDS011;14402;48.178;11.566;2022-10-22T00:30:00;2.7;;;1.5;;
26824;SDS011;14402;48.178;11.566;2022-10-22T00:30:30;3.8;;;1.6;;
26824;SDS011;14402;48.178;11.566;2022-10-22T00:31:00;5.0;;;1.8;;
26824;SDS011;14402;48.178;11.566;2022-10-22T00:31:30;5.0;;;1.8;;
26824;SDS011;14402;48.178;11.566;2022-10-22T00:32:01;5.0;;;1.8;;
26824;SDS011;14402;48.178;11.566;2022-10-22T00:32:31;3.8;;;1.6;;
26824;SDS011;14402;48.178;11.566;2022-10-22T00:33:01;2.7;;;1.4;;
26824;SDS011;14402;48.178;11.566;2022-10-22T00:33:31;2.7;;;1.4;;
26824;SDS011;14402;48.178;11.566;2022-10-22T00:34:01;2.7;;;1.4;;
26824;SDS011;14402;48.178;11.566;2022-10-22T00:34:31;2.5;;;1.4;;
26824;SDS011;14402;48.178;11.566;2022-10-22T00:35:01;2.3;;;1.4;;
26824;SDS011;14402;48.178;11.566;2022-10-22T00:35:31;2.3;;;1.4;;
26824;SDS011;14402;48.178;11.566;2022-10-22T00:36:01;2.3;;;1.4;;
26824;SDS011;14402;48.178;11.566;2022-10-22T00:36:31;2.7;;;1.5;;
26824;SDS011;14402;48.178;11.566;2022-10-22T00:37:01;3.1;;;1.7;;
26824;SDS011;14402;48.178;11.566;2022-10-22T00:37:32;3.1;;;1.7;;
26824;SDS011;14402;48.178;11.566;2022-10-22T00:38:02;3.1;;;1.7;;
26824;SDS011;14402;48.178;11.566;2022-10-22T00:38:32;2.9;;;1.8;;
26824;SDS011;14402;48.178;11.566;2022-10-22T00:39:02;2.7;;;1.8;;
26824;SDS011;14402;48.178;11.566;2022-10-22T00:39:32;2.7;;;1.8;;
26824;SDS011;14402;48.178;11.566;2022-10-22T00:40:02;2.7;;;1.8;;
26824;SDS011;14402;48.178;11.566;2022-10-22T00:40:32;2.9;;;1.7;;
26824;SDS011;14402;48.178;11.566;2022-10-22T00:41:02;3.1;;;1.6;;
26824;SDS011;14402;48.178;11.566;2022-10-22T00:41:32;3.1;;;1.6;;
26824;SDS011;14402;48.178;11.566;2022-10-22T00:42:02;3.1;;;1.6;;
26824;SDS011;14402;48.178;11.566;2022-10-22T00:42:32;2.8;;;1.5;;
26824;SDS011;14402;48.178;11.566;2022-10-22T00:43:03;2.5;;;1.5;;
26824;SDS011;14402;48.178;11.566;2022-10-22T00:43:33;2.5;;;1.5;;
26824;SDS011;14402;48.178;11.566;2022-10-22T00:44:03;2.5;;;1.5;;
26824;SDS011;14402;48.178;11.566;2022-10-22T00:45:41;2.2;;;1.4;;
26824;SDS011;14402;48.178;11.566;2022-10-22T00:45:41;2.2;;;1.4;;
26824;SDS011;14402;48.178;11.566;2022-10-22T00:45:41;2.3;;;1.5;;
26824;SDS011;14402;48.178;11.566;2022-10-22T00:46:03;2.2;;;1.4;;
26824;SDS011;14402;48.178;11.566;2022-10-22T00:46:33;2.2;;;1.3;;
26824;SDS011;14402;48.178;11.566;2022-10-22T00:47:03;2.1;;;1.3;;
26824;SDS011;14402;48.178;11.566;2022-10-22T00:47:35;2.1;;;1.3;;
26824;SDS011;14402;48.178;11.566;2022-10-22T00:48:04;2.1;;;1.3;;
26824;SDS011;14402;48.178;11.566;2022-10-22T00:48:33;2.2;;;1.3;;
26824;SDS011;14402;48.178;11.566;2022-10-22T00:49:03;2.4;;;1.3;;
26824;SDS011;14402;48.178;11.566;2022-10-22T00:49:34;2.4;;;1.3;;
26824;SDS011;14402;48.178;11.566;2022-10-22T00:50:04;2.4;;;1.3;;
26824;SDS011;14402;48.178;11.566;2022-10-22T00:50:34;2.6;;;1.3;;
26824;SDS011;14402;48.178;11.566;2022-10-22T00:51:05;2.8;;;1.4;;
26824;SDS011;14402;48.178;11.566;2022-10-22T00:51:34;2.8;;;1.4;;
26824;SDS011;14402;48.178;11.566;2022-10-22T00:52:04;2.8;;;1.4;;
26824;SDS011;14402;48.178;11.566;2022-10-22T00:52:34;2.9;;;1.3;;
26824;SDS011;14402;48.178;11.566;2022-10-22T00:53:05;3.0;;;1.3;;
26824;SDS011;14402;48.178;11.566;2022-10-22T00:53:35;3.0;;;1.3;;
26824;SDS011;14402;48.178;11.566;2022-10-22T00:54:05;3.0;;;1.3;;
26824;SDS011;14402;48.178;11.566;2022-10-22T00:54:34;2.9;;;1.3;;
26824;SDS011;14402;48.178;11.566;2022-10-22T00:55:05;2.8;;;1.3;;
26824;SDS011;14402;48.178;11.566;2022-10-22T00:55:35;2.8;;;1.3;;
26824;SDS011;14402;48.178;11.566;2022-10-22T00:56:05;2.8;;;1.3;;
26824;SDS011;14402;48.178;11.566;2022-10-22T00:56:35;2.6;;;1.2;;
26824;SDS011;14402;48.178;11.566;2022-10-22T00:57:05;2.4;;;1.1;;
26824;SDS011;14402;48.178;11.566;2022-10-22T00:57:35;2.4;;;1.1;;
26824;SDS011;14402;48.178;11.566;2022-10-22T00:58:05;2.4;;;1.1;;
26824;SDS011;14402;48.178;11.566;2022-10-22T00:58:36;2.6;;;1.0;;
26824;SDS011;14402;48.178;11.566;2022-10-22T00:59:05;2.8;;;0.9;;
26824;SDS011;14402;48.178;11.566;2022-10-22T00:59:35;2.8;;;0.9;;
26824;SDS011;14402;48.178;11.566;2022-10-22T01:00:06;2.8;;;0.9;;
26824;SDS011;14402;48.178;11.566;2022-10-22T01:00:35;3.0;;;1.0;;
26824;SDS011;14402;48.178;11.566;2022-10-22T01:01:06;3.2;;;1.2;;
26824;SDS011;14402;48.178;11.566;2022-10-22T01:01:36;3.2;;;1.2;;
26824;SDS011;14402;48.178;11.566;2022-10-22T01:02:06;3.2;;;1.2;;
26824;SDS011;14402;48.178;11.566;2022-10-22T01:02:36;2.8;;;1.0;;
26824;SDS011;14402;48.178;11.566;2022-10-22T01:03:06;2.4;;;0.9;;
26824;SDS011;14402;48.178;11.566;2022-10-22T01:03:36;2.4;;;0.9;;
26824;SDS011;14402;48.178;11.566;2022-10-22T01:04:06;2.4;;;0.9;;
26824;SDS011;14402;48.178;11.566;2022-10-22T01:04:36;2.2;;;0.9;;
26824;SDS011;14402;48.178;11.566;2022-10-22T01:05:07;2.0;;;0.9;;
26824;SDS011;14402;48.178;11.566;2022-10-22T01:05:38;2.0;;;0.9;;
26824;SDS011;14402;48.178;11.566;2022-10-22T01:06:09;2.0;;;0.9;;
26824;SDS011;14402;48.178;11.566;2022-10-22T01:06:37;1.9;;;0.9;;
26824;SDS011;14402;48.178;11.566;2022-10-22T01:07:08;1.8;;;0.9;;
26824;SDS011;14402;48.178;11.566;2022-10-22T01:07:39;1.8;;;0.9;;
26824;SDS011;14402;48.178;11.566;2022-10-22T01:08:07;1.8;;;0.9;;
26824;SDS011;14402;48.178;11.566;2022-10-22T01:08:38;1.6;;;0.9;;
26824;SDS011;14402;48.178;11.566;2022-10-22T01:09:11;1.5;;;1.0;;
26824;SDS011;14402;48.178;11.566;2022-10-22T01:09:38;1.5;;;1.0;;
26824;SDS011;14402;48.178;11.566;2022-10-22T01:10:09;1.5;;;1.0;;
26824;SDS011;14402;48.178;11.566;2022-10-22T01:10:41;1.9;;;0.9;;
26824;SDS011;14402;48.178;11.566;2022-10-22T01:11:11;2.3;;;0.9;;
26824;SDS011;14402;48.178;11.566;2022-10-22T01:11:42;2.3;;;0.9;;
26824;SDS011;14402;48.178;11.566;2022-10-22T01:12:08;2.3;;;0.9;;
26824;SDS011;14402;48.178;11.566;2022-10-22T01:12:41;2.4;;;0.9;;
26824;SDS011;14402;48.178;11.566;2022-10-22T01:13:12;2.5;;;0.9;;
26824;SDS011;14402;48.178;11.566;2022-10-22T01:13:41;2.5;;;0.9;;
26824;SDS011;14402;48.178;11.566;2022-10-22T01:14:12;2.5;;;0.9;;
26824;SDS011;14402;48.178;11.566;2022-10-22T01:14:41;2.0;;;0.8;;
26824;SDS011;14402;48.178;11.566;2022-10-22T01:15:10;1.6;;;0.7;;
26824;SDS011;14402;48.178;11.566;2022-10-22T01:15:40;1.6;;;0.7;;
26824;SDS011;14402;48.178;11.566;2022-10-22T01:16:09;1.6;;;0.7;;
26824;SDS011;14402;48.178;11.566;2022-10-22T01:16:40;2.2;;;0.9;;
26824;SDS011;14402;48.178;11.566;2022-10-22T01:17:12;2.9;;;1.0;;
26824;SDS011;14402;48.178;11.566;2022-10-22T01:17:40;2.9;;;1.0;;
26824;SDS011;14402;48.178;11.566;2022-10-22T01:18:09;2.9;;;1.0;;
26824;SDS011;14402;48.178;11.566;2022-10-22T01:18:42;2.2;;;1.0;;
26824;SDS011;14402;48.178;11.566;2022-10-22T01:19:13;1.6;;;1.0;;
26824;SDS011;14402;48.178;11.566;2022-10-22T01:19:43;1.6;;;1.0;;
26824;SDS011;14402;48.178;11.566;2022-10-22T01:20:13;1.6;;;1.0;;
26824;SDS011;14402;48.178;11.566;2022-10-22T01:20:57;1.7;;;0.9;;
26824;SDS011;14402;48.178;11.566;2022-10-22T01:21:13;1.7;;;0.8;;
26824;SDS011;14402;48.178;11.566;2022-10-22T01:21:41;1.7;;;0.8;;
26824;SDS011;14402;48.178;11.566;2022-10-22T01:22:10;1.7;;;0.8;;
26824;SDS011;14402;48.178;11.566;2022-10-22T01:22:41;2.0;;;0.8;;
26824;SDS011;14402;48.178;11.566;2022-10-22T01:23:14;2.2;;;0.7;;
26824;SDS011;14402;48.178;11.566;2022-10-22T01:24:47;2.2;;;0.7;;
26824;SDS011;14402;48.178;11.566;2022-10-22T01:24:49;2.2;;;0.7;;
26824;SDS011;14402;48.178;11.566;2022-10-22T01:24:52;2.1;;;0.8;;
26824;SDS011;14402;48.178;11.566;2022-10-22T01:25:11;2.0;;;0.8;;
26824;SDS011;14402;48.178;11.566;2022-10-22T01:25:42;2.0;;;0.8;;
26824;SDS011;14402;48.178;11.566;2022-10-22T01:26:11;2.0;;;0.8;;
26824;SDS011;14402;48.178;11.566;2022-10-22T01:26:42;2.0;;;0.8;;
26824;SDS011;14402;48.178;11.566;2022-10-22T01:27:14;2.1;;;0.8;;
26824;SDS011;14402;48.178;11.566;2022-10-22T01:27:43;2.1;;;0.8;;
26824;SDS011;14402;48.178;11.566;2022-10-22T01:28:13;2.1;;;0.8;;
26824;SDS011;14402;48.178;11.566;2022-10-22T01:28:51;2.7;;;0.8;;
26824;SDS011;14402;48.178;11.566;2022-10-22T01:29:12;3.2;;;0.8;;
26824;SDS011;14402;48.178;11.566;2022-10-22T01:29:42;3.2;;;0.8;;
26824;SDS011;14402;48.178;11.566;2022-10-22T01:30:11;3.2;;;0.8;;
26824;SDS011;14402;48.178;11.566;2022-10-22T01:30:41;2.5;;;0.8;;
26824;SDS011;14402;48.178;11.566;2022-10-22T01:31:11;1.9;;;0.7;;
26824;SDS011;14402;48.178;11.566;2022-10-22T01:31:42;1.9;;;0.7;;
26824;SDS011;14402;48.178;11.566;2022-10-22T01:32:13;1.9;;;0.7;;
26824;SDS011;14402;48.178;11.566;2022-10-22T01:32:42;2.4;;;0.8;;
26824;SDS011;14402;48.178;11.566;2022-10-22T01:33:12;2.9;;;0.9;;
26824;SDS011;14402;48.178;11.566;2022-10-22T01:33:42;2.9;;;0.9;;
26824;SDS011;14402;48.178;11.566;2022-10-22T01:34:13;2.9;;;0.9;;
26824;SDS011;14402;48.178;11.566;2022-10-22T01:34:42;2.8;;;0.8;;
26824;SDS011;14402;48.178;11.566;2022-10-22T01:35:13;2.7;;;0.7;;
26824;SDS011;14402;48.178;11.566;2022-10-22T01:35:42;2.7;;;0.7;;
26824;SDS011;14402;48.178;11.566;2022-10-22T01:36:12;2.7;;;0.7;;
26824;SDS011;14402;48.178;11.566;2022-10-22T01:36:43;2.5;;;0.6;;
26824;SDS011;14402;48.178;11.566;2022-10-22T01:37:13;2.3;;;0.6;;
26824;SDS011;14402;48.178;11.566;2022-10-22T01:37:43;2.3;;;0.6;;
26824;SDS011;14402;48.178;11.566;2022-10-22T01:38:14;2.3;;;0.6;;
26824;SDS011;14402;48.178;11.566;2022-10-22T01:38:43;1.6;;;0.6;;
26824;SDS011;14402;48.178;11.566;2022-10-22T01:39:13;1.0;;;0.5;;
26824;SDS011;14402;48.178;11.566;2022-10-22T01:39:43;1.0;;;0.5;;
26824;SDS011;14402;48.178;11.566;2022-10-22T01:40:13;1.0;;;0.5;;
26824;SDS011;14402;48.178;11.566;2022-10-22T01:40:44;1.5;;;0.6;;
26824;SDS011;14402;48.178;11.566;2022-10-22T01:41:13;1.9;;;0.7;;
26824;SDS011;14402;48.178;11.566;2022-10-22T01:41:44;1.9;;;0.7;;
26824;SDS011;14402;48.178;11.566;2022-10-22T01:42:14;1.9;;;0.7;;
26824;SDS011;14402;48.178;11.566;2022-10-22T01:42:52;2.0;;;0.7;;
26824;SDS011;14402;48.178;11.566;2022-10-22T01:43:14;2.2;;;0.7;;
26824;SDS011;14402;48.178;11.566;2022-10-22T01:43:44;2.2;;;0.7;;
26824;SDS011;14402;48.178;11.566;2022-10-22T01:44:22;2.2;;;0.7;;
26824;SDS011;14402;48.178;11.566;2022-10-22T01:44:44;2.0;;;0.7;;
26824;SDS011;14402;48.178;11.566;2022-10-22T01:45:14;1.7;;;0.7;;
26824;SDS011;14402;48.178;11.566;2022-10-22T01:45:45;1.7;;;0.7;;
26824;SDS011;14402;48.178;11.566;2022-10-22T01:46:14;1.7;;;0.7;;
26824;SDS011;14402;48.178;11.566;2022-10-22T01:46:44;2.0;;;0.8;;
26824;SDS011;14402;48.178;11.566;2022-10-22T01:47:16;2.3;;;0.8;;
26824;SDS011;14402;48.178;11.566;2022-10-22T01:47:47;2.3;;;0.8;;
26824;SDS011;14402;48.178;11.566;2022-10-22T01:48:21;2.3;;;0.8;;
26824;SDS011;14402;48.178;11.566;2022-10-22T01:48:49;2.2;;;0.7;;
26824;SDS011;14402;48.178;11.566;2022-10-22T01:49:15;2.0;;;0.6;;
26824;SDS011;14402;48.178;11.566;2022-10-22T01:49:52;2.0;;;0.6;;
26824;SDS011;14402;48.178;11.566;2022-10-22T01:50:22;2.0;;;0.6;;
26824;SDS011;14402;48.178;11.566;2022-10-22T01:50:48;1.6;;;0.6;;
26824;SDS011;14402;48.178;11.566;2022-10-22T01:51:19;1.2;;;0.5;;
26824;SDS011;14402;48.178;11.566;2022-10-22T01:51:48;1.2;;;0.5;;
26824;SDS011;14402;48.178;11.566;2022-10-22T01:52:19;1.2;;;0.5;;
26824;SDS011;14402;48.178;11.566;2022-10-22T01:52:50;2.2;;;0.6;;
26824;SDS011;14402;48.178;11.566;2022-10-22T01:53:18;3.3;;;0.7;;
26824;SDS011;14402;48.178;11.566;2022-10-22T01:53:48;3.3;;;0.7;;
26824;SDS011;14402;48.178;11.566;2022-10-22T01:54:19;3.3;;;0.7;;
26824;SDS011;14402;48.178;11.566;2022-10-22T01:54:48;2.7;;;0.6;;
26824;SDS011;14402;48.178;11.566;2022-10-22T01:55:18;2.0;;;0.6;;
26824;SDS011;14402;48.178;11.566;2022-10-22T01:55:50;2.0;;;0.6;;
26824;SDS011;14402;48.178;11.566;2022-10-22T01:56:21;2.0;;;0.6;;
26824;SDS011;14402;48.178;11.566;2022-10-22T01:56:50;3.2;;;0.6;;
26824;SDS011;14402;48.178;11.566;2022-10-22T01:57:17;4.3;;;0.7;;
26824;SDS011;14402;48.178;11.566;2022-10-22T01:57:48;4.3;;;0.7;;
26824;SDS011;14402;48.178;11.566;2022-10-22T01:58:18;4.3;;;0.7;;
26824;SDS011;14402;48.178;11.566;2022-10-22T01:58:48;2.8;;;0.6;;
26824;SDS011;14402;48.178;11.566;2022-10-22T01:59:19;1.2;;;0.6;;
26824;SDS011;14402;48.178;11.566;2022-10-22T01:59:49;1.2;;;0.6;;
26824;SDS011;14402;48.178;11.566;2022-10-22T02:00:17;1.2;;;0.6;;
26824;SDS011;14402;48.178;11.566;2022-10-22T02:00:48;1.4;;;0.6;;
26824;SDS011;14402;48.178;11.566;2022-10-22T02:01:22;1.6;;;0.6;;
26824;SDS011;14402;48.178;11.566;2022-10-22T02:01:48;1.6;;;0.6;;
26824;SDS011;14402;48.178;11.566;2022-10-22T02:02:22;1.6;;;0.6;;
26824;SDS011;14402;48.178;11.566;2022-10-22T02:02:48;1.5;;;0.6;;
26824;SDS011;14402;48.178;11.566;2022-10-22T02:03:18;1.3;;;0.7;;
26824;SDS011;14402;48.178;11.566;2022-10-22T02:03:50;1.3;;;0.7;;
26824;SDS011;14402;48.178;11.566;2022-10-22T02:04:19;1.3;;;0.7;;
26824;SDS011;14402;48.178;11.566;2022-10-22T02:04:48;1.6;;;0.6;;
26824;SDS011;14402;48.178;11.566;2022-10-22T02:05:19;2.0;;;0.6;;
26824;SDS011;14402;48.178;11.566;2022-10-22T02:05:48;2.0;;;0.6;;
26824;SDS011;14402;48.178;11.566;2022-10-22T02:06:19;2.0;;;0.6;;
26824;SDS011;14402;48.178;11.566;2022-10-22T02:06:48;2.3;;;0.6;;
26824;SDS011;14402;48.178;11.566;2022-10-22T02:07:19;2.6;;;0.7;;
26824;SDS011;14402;48.178;11.566;2022-10-22T02:07:49;2.6;;;0.7;;
26824;SDS011;14402;48.178;11.566;2022-10-22T02:08:19;2.6;;;0.7;;
26824;SDS011;14402;48.178;11.566;2022-10-22T02:08:48;2.6;;;0.7;;
26824;SDS011;14402;48.178;11.566;2022-10-22T02:09:19;2.6;;;0.7;;
26824;SDS011;14402;48.178;11.566;2022-10-22T02:09:49;2.6;;;0.7;;
26824;SDS011;14402;48.178;11.566;2022-10-22T02:10:19;2.6;;;0.7;;
26824;SDS011;14402;48.178;11.566;2022-10-22T02:10:49;2.3;;;0.8;;
26824;SDS011;14402;48.178;11.566;2022-10-22T02:11:19;2.1;;;0.8;;
26824;SDS011;14402;48.178;11.566;2022-10-22T02:11:49;2.1;;;0.8;;
26824;SDS011;14402;48.178;11.566;2022-10-22T02:12:19;2.1;;;0.8;;
26824;SDS011;14402;48.178;11.566;2022-10-22T02:12:50;2.4;;;0.8;;
26824;SDS011;14402;48.178;11.566;2022-10-22T02:13:20;2.8;;;0.8;;
26824;SDS011;14402;48.178;11.566;2022-10-22T02:13:50;2.8;;;0.8;;
26824;SDS011;14402;48.178;11.566;2022-10-22T02:14:20;2.8;;;0.8;;
26824;SDS011;14402;48.178;11.566;2022-10-22T02:14:50;2.5;;;0.8;;
26824;SDS011;14402;48.178;11.566;2022-10-22T02:15:20;2.3;;;0.8;;
26824;SDS011;14402;48.178;11.566;2022-10-22T02:15:50;2.3;;;0.8;;
26824;SDS011;14402;48.178;11.566;2022-10-22T02:16:24;2.3;;;0.8;;
26824;SDS011;14402;48.178;11.566;2022-10-22T02:16:50;2.0;;;0.8;;
26824;SDS011;14402;48.178;11.566;2022-10-22T02:17:21;1.7;;;0.8;;
26824;SDS011;14402;48.178;11.566;2022-10-22T02:17:50;1.7;;;0.8;;
26824;SDS011;14402;48.178;11.566;2022-10-22T02:18:21;1.7;;;0.8;;
26824;SDS011;14402;48.178;11.566;2022-10-22T02:18:51;2.6;;;0.8;;
26824;SDS011;14402;48.178;11.566;2022-10-22T02:19:22;3.4;;;0.7;;
26824;SDS011;14402;48.178;11.566;2022-10-22T02:19:51;3.4;;;0.7;;
26824;SDS011;14402;48.178;11.566;2022-10-22T02:20:22;3.4;;;0.7;;
26824;SDS011;14402;48.178;11.566;2022-10-22T02:20:51;3.0;;;0.7;;
26824;SDS011;14402;48.178;11.566;2022-10-22T02:21:21;2.6;;;0.7;;
26824;SDS011;14402;48.178;11.566;2022-10-22T02:21:51;2.6;;;0.7;;
26824;SDS011;14402;48.178;11.566;2022-10-22T02:22:21;2.6;;;0.7;;
26824;SDS011;14402;48.178;11.566;2022-10-22T02:22:51;2.7;;;0.7;;
26824;SDS011;14402;48.178;11.566;2022-10-22T02:23:21;2.8;;;0.7;;
26824;SDS011;14402;48.178;11.566;2022-10-22T02:23:51;2.8;;;0.7;;
26824;SDS011;14402;48.178;11.566;2022-10-22T02:24:21;2.8;;;0.7;;
26824;SDS011;14402;48.178;11.566;2022-10-22T02:24:51;2.4;;;0.8;;
26824;SDS011;14402;48.178;11.566;2022-10-22T02:25:22;2.1;;;0.8;;
26824;SDS011;14402;48.178;11.566;2022-10-22T02:25:52;2.1;;;0.8;;
26824;SDS011;14402;48.178;11.566;2022-10-22T02:26:23;2.1;;;0.8;;
26824;SDS011;14402;48.178;11.566;2022-10-22T02:26:53;2.2;;;0.8;;
26824;SDS011;14402;48.178;11.566;2022-10-22T02:27:23;2.3;;;0.7;;
26824;SDS011;14402;48.178;11.566;2022-10-22T02:27:53;2.3;;;0.7;;
26824;SDS011;14402;48.178;11.566;2022-10-22T02:28:22;2.3;;;0.7;;
26824;SDS011;14402;48.178;11.566;2022-10-22T02:28:55;1.9;;;0.6;;
26824;SDS011;14402;48.178;11.566;2022-10-22T02:29:23;1.5;;;0.5;;
26824;SDS011;14402;48.178;11.566;2022-10-22T02:29:54;1.5;;;0.5;;
26824;SDS011;14402;48.178;11.566;2022-10-22T02:30:22;1.5;;;0.5;;
26824;SDS011;14402;48.178;11.566;2022-10-22T02:30:54;1.7;;;0.6;;
26824;SDS011;14402;48.178;11.566;2022-10-22T02:31:23;1.9;;;0.7;;
26824;SDS011;14402;48.178;11.566;2022-10-22T02:31:53;1.9;;;0.7;;
26824;SDS011;14402;48.178;11.566;2022-10-22T02:32:25;1.9;;;0.7;;
26824;SDS011;14402;48.178;11.566;2022-10-22T02:32:54;2.8;;;0.7;;
26824;SDS011;14402;48.178;11.566;2022-10-22T02:33:25;3.6;;;0.7;;
26824;SDS011;14402;48.178;11.566;2022-10-22T02:33:53;3.6;;;0.7;;
26824;SDS011;14402;48.178;11.566;2022-10-22T02:34:24;3.6;;;0.7;;
26824;SDS011;14402;48.178;11.566;2022-10-22T02:34:53;3.5;;;0.8;;
26824;SDS011;14402;48.178;11.566;2022-10-22T02:35:24;3.5;;;0.8;;
26824;SDS011;14402;48.178;11.566;2022-10-22T02:35:54;3.5;;;0.8;;
26824;SDS011;14402;48.178;11.566;2022-10-22T02:36:24;3.5;;;0.8;;
26824;SDS011;14402;48.178;11.566;2022-10-22T02:36:54;2.8;;;0.7;;
26824;SDS011;14402;48.178;11.566;2022-10-22T02:37:24;2.2;;;0.6;;
26824;SDS011;14402;48.178;11.566;2022-10-22T02:37:54;2.2;;;0.6;;
26824;SDS011;14402;48.178;11.566;2022-10-22T02:38:24;2.2;;;0.6;;
26824;SDS011;14402;48.178;11.566;2022-10-22T02:38:54;2.0;;;0.6;;
26824;SDS011;14402;48.178;11.566;2022-10-22T02:39:24;1.9;;;0.7;;
26824;SDS011;14402;48.178;11.566;2022-10-22T02:39:54;1.9;;;0.7;;
26824;SDS011;14402;48.178;11.566;2022-10-22T02:40:24;1.9;;;0.7;;
26824;SDS011;14402;48.178;11.566;2022-10-22T02:40:54;2.2;;;0.7;;
26824;SDS011;14402;48.178;11.566;2022-10-22T02:41:24;2.4;;;0.7;;
26824;SDS011;14402;48.178;11.566;2022-10-22T02:41:55;2.4;;;0.7;;
26824;SDS011;14402;48.178;11.566;2022-10-22T02:42:25;2.4;;;0.7;;
26824;SDS011;14402;48.178;11.566;2022-10-22T02:42:55;2.3;;;0.8;;
26824;SDS011;14402;48.178;11.566;2022-10-22T02:43:25;2.2;;;0.8;;
26824;SDS011;14402;48.178;11.566;2022-10-22T02:43:55;2.2;;;0.8;;
26824;SDS011;14402;48.178;11.566;2022-10-22T02:44:25;2.2;;;0.8;;
26824;SDS011;14402;48.178;11.566;2022-10-22T02:44:55;1.8;;;0.8;;
26824;SDS011;14402;48.178;11.566;2022-10-22T02:45:25;1.3;;;0.7;;
26824;SDS011;14402;48.178;11.566;2022-10-22T02:45:55;1.3;;;0.7;;
26824;SDS011;14402;48.178;11.566;2022-10-22T02:46:25;1.3;;;0.7;;
26824;SDS011;14402;48.178;11.566;2022-10-22T02:46:55;1.6;;;0.8;;
26824;SDS011;14402;48.178;11.566;2022-10-22T02:47:26;2.0;;;0.8;;
26824;SDS011;14402;48.178;11.566;2022-10-22T02:47:56;2.0;;;0.8;;
26824;SDS011;14402;48.178;11.566;2022-10-22T02:48:26;2.0;;;0.8;;
26824;SDS011;14402;48.178;11.566;2022-10-22T02:48:56;2.3;;;0.8;;
26824;SDS011;14402;48.178;11.566;2022-10-22T02:49:26;2.6;;;0.7;;
26824;SDS011;14402;48.178;11.566;2022-10-22T02:49:56;2.6;;;0.7;;
26824;SDS011;14402;48.178;11.566;2022-10-22T02:50:26;2.6;;;0.7;;
26824;SDS011;14402;48.178;11.566;2022-10-22T02:50:56;2.7;;;0.8;;
26824;SDS011;14402;48.178;11.566;2022-10-22T02:51:26;2.8;;;0.8;;
26824;SDS011;14402;48.178;11.566;2022-10-22T02:51:56;2.8;;;0.8;;
26824;SDS011;14402;48.178;11.566;2022-10-22T02:52:27;2.8;;;0.8;;
26824;SDS011;14402;48.178;11.566;2022-10-22T02:52:56;2.2;;;0.6;;
26824;SDS011;14402;48.178;11.566;2022-10-22T02:53:27;1.7;;;0.5;;
26824;SDS011;14402;48.178;11.566;2022-10-22T02:53:57;1.7;;;0.5;;
26824;SDS011;14402;48.178;11.566;2022-10-22T02:54:27;1.7;;;0.5;;
26824;SDS011;14402;48.178;11.566;2022-10-22T02:54:57;2.0;;;0.6;;
26824;SDS011;14402;48.178;11.566;2022-10-22T02:55:27;2.3;;;0.8;;
26824;SDS011;14402;48.178;11.566;2022-10-22T02:55:57;2.3;;;0.8;;
26824;SDS011;14402;48.178;11.566;2022-10-22T02:56:27;2.3;;;0.8;;
26824;SDS011;14402;48.178;11.566;2022-10-22T02:56:57;2.0;;;0.8;;
26824;SDS011;14402;48.178;11.566;2022-10-22T02:57:27;1.8;;;0.8;;
26824;SDS011;14402;48.178;11.566;2022-10-22T02:57:57;1.8;;;0.8;;
26824;SDS011;14402;48.178;11.566;2022-10-22T02:58:28;1.8;;;0.8;;
26824;SDS011;14402;48.178;11.566;2022-10-22T02:58:58;1.7;;;0.7;;
26824;SDS011;14402;48.178;11.566;2022-10-22T02:59:28;1.6;;;0.6;;
26824;SDS011;14402;48.178;11.566;2022-10-22T02:59:58;1.6;;;0.6;;
26824;SDS011;14402;48.178;11.566;2022-10-22T03:00:28;1.6;;;0.6;;
26824;SDS011;14402;48.178;11.566;2022-10-22T03:01:03;2.4;;;0.6;;
26824;SDS011;14402;48.178;11.566;2022-10-22T03:01:28;3.2;;;0.7;;
26824;SDS011;14402;48.178;11.566;2022-10-22T03:01:58;3.2;;;0.7;;
26824;SDS011;14402;48.178;11.566;2022-10-22T03:02:28;3.2;;;0.7;;
26824;SDS011;14402;48.178;11.566;2022-10-22T03:02:58;2.6;;;0.6;;
26824;SDS011;14402;48.178;11.566;2022-10-22T03:03:28;2.0;;;0.6;;
26824;SDS011;14402;48.178;11.566;2022-10-22T03:03:59;2.0;;;0.6;;